Thunderstorms From: 25-05-2018 23:09 Until: 26-05-2018 15:00 warning for: Thunderstorms Level: Yellow info button

Although rather usual in this region, locally or potentially dangerous phenomena are expected. (such as local winds, summer thunderstorms, rising streams or high waves) Be aware and pay attention to the latest weather updates, especially if you carry out activities exposed to weather or close to a stream or shoreline. 


Meteo18 Weather Cam more information Meteo18 Weather Cam


warning for Thunderstorms more information blitzortung!


Rain radar more information rain snow radar


Visit our other weather sites:

Template documentation
and downloads

And another site



Weather Underground History page Text

Daily Summary for January 23, 2018 Units:  Both    English   Metric
« Previous Day
Next Day »
Daily Weekly Monthly Yearly Custom
  High: Low: Average:
Temperature: TemperatureC °F /  -17.8 °C 6.7 °F /  -14.1 °C 8.3 °F /  -13.2 °C
Dew Point: DewpointC °F /  -17.8 °C 5.7 °F /  -14.6 °C 7.4 °F /  -13.7 °C
Humidity: Humidity % 86 % 94 %
Wind Speed: WindSpeedKMH mph /  0 km/h - 7.4 mph /  11.9 km/h
Wind Gust: WindSpeedGustKMH mph /  0 km/h - -
Wind:- - SW
Pressure: PressurehPa in /  0 hPa 1025.3 in /  34716.7 hPa -
Precipitation: 0.3 in /  7.62 mm    
Historical Graphs
 
 
Tabular Data for January 23, 2018
Time Temperature Dew Point Pressure Wind Wind Speed Wind Gust Humidity Rainfall Rate (Hourly)
TemperatureC °F /  -17.8 °C DewpointC °F /  -17.8 °C PressurehPa in /  0 hPa Calm     Humidity % HourlyPrecipMM in /  0 mm
00:04 7.9 °F /  -13.4 °C 6.7 °F /  -14.1 °C 1025.6 in /  34726.8 hPa SW 1.4 mph /  2.3 km/h 4.8 mph /  7.7 km/h 92 % 0.0 in /  0 mm
00:10 7.9 °F /  -13.4 °C 6.7 °F /  -14.1 °C 1025.6 in /  34726.8 hPa WSW 1.4 mph /  2.3 km/h 3.2 mph /  5.1 km/h 92 % 0.0 in /  0 mm
00:16 7.9 °F /  -13.4 °C 6.7 °F /  -14.1 °C 1025.6 in /  34726.8 hPa Calm   4.8 mph /  7.7 km/h 92 % 0.0 in /  0 mm
00:22 7.8 °F /  -13.4 °C 6.6 °F /  -14.1 °C 1025.6 in /  34726.8 hPa WSW 3.2 mph /  5.1 km/h 6.4 mph /  10.3 km/h 92 % 0.0 in /  0 mm
00:28 7.8 °F /  -13.4 °C 6.6 °F /  -14.1 °C 1025.6 in /  34726.8 hPa WSW 7.9 mph /  12.7 km/h 9.7 mph /  15.6 km/h 92 % 0.0 in /  0 mm
00:34 7.8 °F /  -13.4 °C 6.6 °F /  -14.1 °C 1025.6 in /  34726.8 hPa SW 3.2 mph /  5.1 km/h 6.4 mph /  10.3 km/h 92 % 0.0 in /  0 mm
00:40 7.8 °F /  -13.4 °C 6.6 °F /  -14.1 °C 1025.6 in /  34726.8 hPa WSW 7.9 mph /  12.7 km/h 9.7 mph /  15.6 km/h 92 % 0.0 in /  0 mm
00:46 7.8 °F /  -13.4 °C 6.6 °F /  -14.1 °C 1025.6 in /  34726.8 hPa WSW 3.2 mph /  5.1 km/h 6.4 mph /  10.3 km/h 92 % 0.0 in /  0 mm
00:52 7.8 °F /  -13.4 °C 6.6 °F /  -14.1 °C 1025.3 in /  34716.7 hPa West 7.9 mph /  12.7 km/h 8.0 mph /  12.9 km/h 92 % 0.0 in /  0 mm
00:58 7.8 °F /  -13.4 °C 6.6 °F /  -14.1 °C 1025.3 in /  34716.7 hPa WSW 3.2 mph /  5.1 km/h 6.4 mph /  10.3 km/h 92 % 0.0 in /  0 mm
01:04 7.8 °F /  -13.4 °C 6.6 °F /  -14.1 °C 1025.6 in /  34726.8 hPa WSW 3.2 mph /  5.1 km/h 4.8 mph /  7.7 km/h 92 % 0.0 in /  0 mm
01:10 7.8 °F /  -13.4 °C 6.4 °F /  -14.2 °C 1025.6 in /  34726.8 hPa WSW 4.7 mph /  7.6 km/h 4.8 mph /  7.7 km/h 91 % 0.0 in /  0 mm
01:16 7.8 °F /  -13.4 °C 6.4 °F /  -14.2 °C 1025.6 in /  34726.8 hPa Calm   3.2 mph /  5.1 km/h 91 % 0.0 in /  0 mm
01:22 7.8 °F /  -13.4 °C 6.4 °F /  -14.2 °C 1025.6 in /  34726.8 hPa WSW 3.2 mph /  5.1 km/h 3.2 mph /  5.1 km/h 91 % 0.0 in /  0 mm
01:28 7.8 °F /  -13.4 °C 6.4 °F /  -14.2 °C 1025.6 in /  34726.8 hPa West 1.4 mph /  2.3 km/h 3.2 mph /  5.1 km/h 91 % 0.0 in /  0 mm
01:34 7.8 °F /  -13.4 °C 6.6 °F /  -14.1 °C 1025.6 in /  34726.8 hPa Calm   3.2 mph /  5.1 km/h 92 % 0.0 in /  0 mm
01:40 7.8 °F /  -13.4 °C 6.6 °F /  -14.1 °C 1025.6 in /  34726.8 hPa West 3.2 mph /  5.1 km/h 4.8 mph /  7.7 km/h 92 % 0.0 in /  0 mm
01:46 7.8 °F /  -13.4 °C 6.4 °F /  -14.2 °C 1025.6 in /  34726.8 hPa West 3.2 mph /  5.1 km/h 4.8 mph /  7.7 km/h 91 % 0.0 in /  0 mm
01:52 7.8 °F /  -13.4 °C 6.4 °F /  -14.2 °C 1025.6 in /  34726.8 hPa West 3.2 mph /  5.1 km/h 3.2 mph /  5.1 km/h 91 % 0.0 in /  0 mm
01:58 7.8 °F /  -13.4 °C 6.4 °F /  -14.2 °C 1025.6 in /  34726.8 hPa WSW 3.2 mph /  5.1 km/h 4.8 mph /  7.7 km/h 91 % 0.0 in /  0 mm
02:04 7.8 °F /  -13.4 °C 6.3 °F /  -14.3 °C 1025.6 in /  34726.8 hPa WSW 3.2 mph /  5.1 km/h 3.2 mph /  5.1 km/h 90 % 0.0 in /  0 mm
02:10 7.9 °F /  -13.4 °C 6.4 °F /  -14.2 °C 1025.6 in /  34726.8 hPa West 3.2 mph /  5.1 km/h 3.2 mph /  5.1 km/h 90 % 0.0 in /  0 mm
02:16 7.9 °F /  -13.4 °C 6.2 °F /  -14.3 °C 1025.6 in /  34726.8 hPa West 1.4 mph /  2.3 km/h 4.8 mph /  7.7 km/h 89 % 0.0 in /  0 mm
02:22 7.9 °F /  -13.4 °C 6.2 °F /  -14.3 °C 1025.6 in /  34726.8 hPa Calm   3.2 mph /  5.1 km/h 89 % 0.0 in /  0 mm
02:28 8.0 °F /  -13.3 °C 6.0 °F /  -14.4 °C 1025.6 in /  34726.8 hPa West 3.2 mph /  5.1 km/h 6.4 mph /  10.3 km/h 87 % 0.0 in /  0 mm
02:34 8.1 °F /  -13.3 °C 5.9 °F /  -14.5 °C 1025.6 in /  34726.8 hPa WSW 3.2 mph /  5.1 km/h 6.4 mph /  10.3 km/h 86 % 0.0 in /  0 mm
02:41 8.1 °F /  -13.3 °C 5.9 °F /  -14.5 °C 1025.6 in /  34726.8 hPa WSW 3.2 mph /  5.1 km/h 4.8 mph /  7.7 km/h 86 % 0.0 in /  0 mm
02:47 8.1 °F /  -13.3 °C 6.1 °F /  -14.4 °C 1026.0 in /  34740.4 hPa SW 1.4 mph /  2.3 km/h 6.4 mph /  10.3 km/h 87 % 0.0 in /  0 mm
02:53 8.0 °F /  -13.3 °C 6.1 °F /  -14.4 °C 1026.0 in /  34740.4 hPa SW 3.2 mph /  5.1 km/h 6.4 mph /  10.3 km/h 88 % 0.0 in /  0 mm
02:59 7.9 °F /  -13.4 °C 6.0 °F /  -14.4 °C 1026.0 in /  34740.4 hPa SW 1.4 mph /  2.3 km/h 4.8 mph /  7.7 km/h 88 % 0.0 in /  0 mm
03:11 7.9 °F /  -13.4 °C 6.2 °F /  -14.3 °C 1026.0 in /  34740.4 hPa SW 3.2 mph /  5.1 km/h 4.8 mph /  7.7 km/h 89 % 0.0 in /  0 mm
03:17 7.8 °F /  -13.4 °C 6.3 °F /  -14.3 °C 1026.0 in /  34740.4 hPa SW 4.7 mph /  7.6 km/h 8.0 mph /  12.9 km/h 90 % 0.0 in /  0 mm
03:29 7.7 °F /  -13.5 °C 6.2 °F /  -14.3 °C 1026.0 in /  34740.4 hPa SW 3.2 mph /  5.1 km/h 6.4 mph /  10.3 km/h 90 % 0.0 in /  0 mm
03:35 7.7 °F /  -13.5 °C 6.2 °F /  -14.3 °C 1026.0 in /  34740.4 hPa SSW 1.4 mph /  2.3 km/h 3.2 mph /  5.1 km/h 90 % 0.0 in /  0 mm
03:41 7.6 °F /  -13.6 °C 6.2 °F /  -14.3 °C 1026.0 in /  34740.4 hPa Calm   1.6 mph /  2.6 km/h 91 % 0.0 in /  0 mm
03:47 7.5 °F /  -13.6 °C 6.1 °F /  -14.4 °C 1026.0 in /  34740.4 hPa Calm   1.6 mph /  2.6 km/h 91 % 0.0 in /  0 mm
03:53 7.4 °F /  -13.7 °C 6.2 °F /  -14.3 °C 1026.0 in /  34740.4 hPa SW 3.2 mph /  5.1 km/h 6.4 mph /  10.3 km/h 92 % 0.0 in /  0 mm
03:59 7.4 °F /  -13.7 °C 6.3 °F /  -14.3 °C 1026.3 in /  34750.5 hPa WSW 6.4 mph /  10.3 km/h 6.4 mph /  10.3 km/h 93 % 0.0 in /  0 mm
04:05 7.4 °F /  -13.7 °C 6.2 °F /  -14.3 °C 1026.3 in /  34750.5 hPa WSW 3.2 mph /  5.1 km/h 4.8 mph /  7.7 km/h 92 % 0.0 in /  0 mm
04:11 7.5 °F /  -13.6 °C 6.1 °F /  -14.4 °C 1026.0 in /  34740.4 hPa West 1.4 mph /  2.3 km/h 3.2 mph /  5.1 km/h 91 % 0.0 in /  0 mm
04:17 7.5 °F /  -13.6 °C 6.1 °F /  -14.4 °C 1026.0 in /  34740.4 hPa West 1.4 mph /  2.3 km/h 3.2 mph /  5.1 km/h 91 % 0.0 in /  0 mm
04:23 7.5 °F /  -13.6 °C 6.1 °F /  -14.4 °C 1026.0 in /  34740.4 hPa Calm   3.2 mph /  5.1 km/h 91 % 0.0 in /  0 mm
04:29 7.5 °F /  -13.6 °C 6.1 °F /  -14.4 °C 1026.3 in /  34750.5 hPa WSW 1.4 mph /  2.3 km/h 3.2 mph /  5.1 km/h 91 % 0.0 in /  0 mm
04:31 7.5 °F /  -13.6 °C 6.1 °F /  -14.4 °C 1026.3 in /  34750.5 hPa Calm   3.2 mph /  5.1 km/h 91 % 0.0 in /  0 mm
04:37 7.4 °F /  -13.7 °C 6.0 °F /  -14.4 °C 1026.3 in /  34750.5 hPa Calm   1.6 mph /  2.6 km/h 91 % 0.0 in /  0 mm
04:43 7.4 °F /  -13.7 °C 6.0 °F /  -14.4 °C 1026.3 in /  34750.5 hPa SSW 1.4 mph /  2.3 km/h 1.6 mph /  2.6 km/h 91 % 0.0 in /  0 mm
04:49 7.4 °F /  -13.7 °C 6.0 °F /  -14.4 °C 1026.3 in /  34750.5 hPa Calm     91 % 0.0 in /  0 mm
04:55 7.2 °F /  -13.8 °C 5.8 °F /  -14.6 °C 1026.3 in /  34750.5 hPa SSW 1.4 mph /  2.3 km/h 3.2 mph /  5.1 km/h 91 % 0.0 in /  0 mm
05:01 6.9 °F /  -13.9 °C 5.7 °F /  -14.6 °C 1026.3 in /  34750.5 hPa SSW 1.4 mph /  2.3 km/h 4.8 mph /  7.7 km/h 92 % 0.0 in /  0 mm
05:07 6.9 °F /  -13.9 °C 5.8 °F /  -14.6 °C 1026.3 in /  34750.5 hPa WSW 1.4 mph /  2.3 km/h 4.8 mph /  7.7 km/h 93 % 0.0 in /  0 mm
05:09 6.9 °F /  -13.9 °C 5.8 °F /  -14.6 °C 1026.3 in /  34750.5 hPa West 3.2 mph /  5.1 km/h 3.2 mph /  5.1 km/h 93 % 0.0 in /  0 mm
05:15 6.9 °F /  -13.9 °C 5.8 °F /  -14.6 °C 1026.3 in /  34750.5 hPa SW 1.4 mph /  2.3 km/h 3.2 mph /  5.1 km/h 93 % 0.0 in /  0 mm
05:21 6.9 °F /  -13.9 °C 6.0 °F /  -14.4 °C 1026.3 in /  34750.5 hPa SW 4.7 mph /  7.6 km/h 4.8 mph /  7.7 km/h 94 % 0.0 in /  0 mm
05:27 7.1 °F /  -13.8 °C 6.2 °F /  -14.3 °C 1026.3 in /  34750.5 hPa SSW 3.2 mph /  5.1 km/h 6.4 mph /  10.3 km/h 94 % 0.0 in /  0 mm
05:33 7.2 °F /  -13.8 °C 6.3 °F /  -14.3 °C 1026.3 in /  34750.5 hPa WSW 6.4 mph /  10.3 km/h 8.0 mph /  12.9 km/h 94 % 0.0 in /  0 mm
05:39 7.2 °F /  -13.8 °C 6.1 °F /  -14.4 °C 1026.3 in /  34750.5 hPa SW 4.7 mph /  7.6 km/h 8.0 mph /  12.9 km/h 93 % 0.0 in /  0 mm
05:45 7.2 °F /  -13.8 °C 6.1 °F /  -14.4 °C 1026.3 in /  34750.5 hPa SW 4.7 mph /  7.6 km/h 4.8 mph /  7.7 km/h 93 % 0.0 in /  0 mm
05:51 7.2 °F /  -13.8 °C 6.3 °F /  -14.3 °C 1026.3 in /  34750.5 hPa SW 6.4 mph /  10.3 km/h 8.0 mph /  12.9 km/h 94 % 0.0 in /  0 mm
05:57 7.2 °F /  -13.8 °C 6.3 °F /  -14.3 °C 1026.3 in /  34750.5 hPa WSW 4.7 mph /  7.6 km/h 6.4 mph /  10.3 km/h 94 % 0.0 in /  0 mm
06:03 7.2 °F /  -13.8 °C 6.3 °F /  -14.3 °C 1026.3 in /  34750.5 hPa SW 4.7 mph /  7.6 km/h 8.0 mph /  12.9 km/h 94 % 0.0 in /  0 mm
06:09 7.2 °F /  -13.8 °C 6.5 °F /  -14.2 °C 1026.3 in /  34750.5 hPa West 3.2 mph /  5.1 km/h 9.7 mph /  15.6 km/h 95 % 0.0 in /  0 mm
06:15 7.2 °F /  -13.8 °C 6.5 °F /  -14.2 °C 1026.3 in /  34750.5 hPa SW 7.9 mph /  12.7 km/h 9.7 mph /  15.6 km/h 95 % 0.0 in /  0 mm
06:27 7.3 °F /  -13.7 °C 6.6 °F /  -14.1 °C 1026.6 in /  34760.7 hPa SW 7.9 mph /  12.7 km/h 8.0 mph /  12.9 km/h 95 % 0.0 in /  0 mm
06:39 7.2 °F /  -13.8 °C 6.5 °F /  -14.2 °C 1026.6 in /  34760.7 hPa SSW 6.4 mph /  10.3 km/h 11.3 mph /  18.2 km/h 95 % 0.0 in /  0 mm
06:45 7.2 °F /  -13.8 °C 6.6 °F /  -14.1 °C 1026.6 in /  34760.7 hPa SSW 11.1 mph /  17.9 km/h 12.9 mph /  20.8 km/h 96 % 0.0 in /  0 mm
06:51 7.1 °F /  -13.8 °C 6.5 °F /  -14.2 °C 1026.3 in /  34750.5 hPa SSW 11.1 mph /  17.9 km/h 16.1 mph /  25.9 km/h 96 % 0.0 in /  0 mm
07:03 6.8 °F /  -14 °C 6.2 °F /  -14.3 °C 1026.6 in /  34760.7 hPa SW 9.7 mph /  15.6 km/h 9.7 mph /  15.6 km/h 96 % 0.0 in /  0 mm
07:09 6.8 °F /  -14 °C 6.2 °F /  -14.3 °C 1026.6 in /  34760.7 hPa WSW 7.9 mph /  12.7 km/h 9.7 mph /  15.6 km/h 96 % 0.0 in /  0 mm
07:15 6.8 °F /  -14 °C 6.4 °F /  -14.2 °C 1026.6 in /  34760.7 hPa SW 3.2 mph /  5.1 km/h 14.5 mph /  23.3 km/h 97 % 0.0 in /  0 mm
07:21 6.8 °F /  -14 °C 6.4 °F /  -14.2 °C 1026.6 in /  34760.7 hPa SW 7.9 mph /  12.7 km/h 12.9 mph /  20.8 km/h 97 % 0.0 in /  0 mm
07:27 6.7 °F /  -14.1 °C 6.3 °F /  -14.3 °C 1026.6 in /  34760.7 hPa SW 6.4 mph /  10.3 km/h 12.9 mph /  20.8 km/h 97 % 0.0 in /  0 mm
07:33 6.8 °F /  -14 °C 6.4 °F /  -14.2 °C 1026.6 in /  34760.7 hPa West 9.7 mph /  15.6 km/h 19.3 mph /  31.1 km/h 97 % 0.0 in /  0 mm
07:39 6.7 °F /  -14.1 °C 6.3 °F /  -14.3 °C 1026.6 in /  34760.7 hPa SW 4.7 mph /  7.6 km/h 14.5 mph /  23.3 km/h 97 % 0.0 in /  0 mm
07:45 6.8 °F /  -14 °C 6.4 °F /  -14.2 °C 1026.6 in /  34760.7 hPa SW 9.7 mph /  15.6 km/h 11.3 mph /  18.2 km/h 97 % 0.0 in /  0 mm
07:51 6.8 °F /  -14 °C 6.4 °F /  -14.2 °C 1026.6 in /  34760.7 hPa SW 6.4 mph /  10.3 km/h 11.3 mph /  18.2 km/h 97 % 0.0 in /  0 mm
07:57 6.8 °F /  -14 °C 6.4 °F /  -14.2 °C 1026.6 in /  34760.7 hPa WSW 1.4 mph /  2.3 km/h 8.0 mph /  12.9 km/h 97 % 0.0 in /  0 mm
08:03 6.8 °F /  -14 °C 6.4 °F /  -14.2 °C 1026.6 in /  34760.7 hPa SSW 6.4 mph /  10.3 km/h 12.9 mph /  20.8 km/h 97 % 0.0 in /  0 mm
08:09 6.8 °F /  -14 °C 6.4 °F /  -14.2 °C 1026.6 in /  34760.7 hPa SW 9.7 mph /  15.6 km/h 11.3 mph /  18.2 km/h 97 % 0.0 in /  0 mm
08:15 6.9 °F /  -13.9 °C 6.5 °F /  -14.2 °C 1026.6 in /  34760.7 hPa WSW 4.7 mph /  7.6 km/h 11.3 mph /  18.2 km/h 97 % 0.0 in /  0 mm
08:21 6.9 °F /  -13.9 °C 6.5 °F /  -14.2 °C 1026.6 in /  34760.7 hPa WSW 4.7 mph /  7.6 km/h 9.7 mph /  15.6 km/h 97 % 0.0 in /  0 mm
08:33 6.9 °F /  -13.9 °C 6.5 °F /  -14.2 °C 1027.0 in /  34774.2 hPa WSW 4.7 mph /  7.6 km/h 8.0 mph /  12.9 km/h 97 % 0.0 in /  0 mm
08:39 6.9 °F /  -13.9 °C 6.5 °F /  -14.2 °C 1027.3 in /  34784.4 hPa SW 9.7 mph /  15.6 km/h 12.9 mph /  20.8 km/h 97 % 0.0 in /  0 mm
08:45 7.0 °F /  -13.9 °C 6.6 °F /  -14.1 °C 1027.3 in /  34784.4 hPa SW 7.9 mph /  12.7 km/h 14.5 mph /  23.3 km/h 97 % 0.0 in /  0 mm
08:51 6.9 °F /  -13.9 °C 6.5 °F /  -14.2 °C 1027.3 in /  34784.4 hPa SW 4.7 mph /  7.6 km/h 14.5 mph /  23.3 km/h 97 % 0.0 in /  0 mm
08:57 6.9 °F /  -13.9 °C 6.5 °F /  -14.2 °C 1027.3 in /  34784.4 hPa West 13.0 mph /  20.9 km/h 14.5 mph /  23.3 km/h 97 % 0.0 in /  0 mm
09:03 6.9 °F /  -13.9 °C 6.5 °F /  -14.2 °C 1027.3 in /  34784.4 hPa WSW 14.3 mph /  23 km/h 16.1 mph /  25.9 km/h 97 % 0.0 in /  0 mm
09:15 6.9 °F /  -13.9 °C 6.5 °F /  -14.2 °C 1027.3 in /  34784.4 hPa West 11.1 mph /  17.9 km/h 14.5 mph /  23.3 km/h 97 % 0.0 in /  0 mm
09:21 6.9 °F /  -13.9 °C 6.5 °F /  -14.2 °C 1027.3 in /  34784.4 hPa SW 4.7 mph /  7.6 km/h 6.4 mph /  10.3 km/h 97 % 0.0 in /  0 mm
09:27 6.9 °F /  -13.9 °C 6.5 °F /  -14.2 °C 1027.3 in /  34784.4 hPa SW 3.2 mph /  5.1 km/h 8.0 mph /  12.9 km/h 97 % 0.0 in /  0 mm
09:39 7.0 °F /  -13.9 °C 6.6 °F /  -14.1 °C 1027.3 in /  34784.4 hPa SW 7.9 mph /  12.7 km/h 19.3 mph /  31.1 km/h 97 % 0.0 in /  0 mm
09:51 7.1 °F /  -13.8 °C 6.5 °F /  -14.2 °C 1027.3 in /  34784.4 hPa WSW 11.1 mph /  17.9 km/h 14.5 mph /  23.3 km/h 96 % 0.0 in /  0 mm
09:57 7.1 °F /  -13.8 °C 6.5 °F /  -14.2 °C 1027.3 in /  34784.4 hPa WSW 7.9 mph /  12.7 km/h 9.7 mph /  15.6 km/h 96 % 0.0 in /  0 mm
10:03 7.1 °F /  -13.8 °C 6.5 °F /  -14.2 °C 1027.3 in /  34784.4 hPa WSW 9.7 mph /  15.6 km/h 9.7 mph /  15.6 km/h 96 % 0.0 in /  0 mm
10:09 7.1 °F /  -13.8 °C 6.5 °F /  -14.2 °C 1027.7 in /  34797.9 hPa SSW 6.4 mph /  10.3 km/h 11.3 mph /  18.2 km/h 96 % 0.0 in /  0 mm
10:16 7.2 °F /  -13.8 °C 6.6 °F /  -14.1 °C 1027.7 in /  34797.9 hPa SW 7.9 mph /  12.7 km/h 8.0 mph /  12.9 km/h 96 % 0.0 in /  0 mm
10:21 7.2 °F /  -13.8 °C 6.6 °F /  -14.1 °C 1027.7 in /  34797.9 hPa SSW 3.2 mph /  5.1 km/h 8.0 mph /  12.9 km/h 96 % 0.0 in /  0 mm
10:28 7.3 °F /  -13.7 °C 6.6 °F /  -14.1 °C 1027.7 in /  34797.9 hPa SSW 3.2 mph /  5.1 km/h 9.7 mph /  15.6 km/h 95 % 0.0 in /  0 mm
10:34 7.3 °F /  -13.7 °C 6.6 °F /  -14.1 °C 1027.7 in /  34797.9 hPa SW 4.7 mph /  7.6 km/h 11.3 mph /  18.2 km/h 95 % 0.0 in /  0 mm
10:40 7.4 °F /  -13.7 °C 6.7 °F /  -14.1 °C 1027.7 in /  34797.9 hPa SSW 7.9 mph /  12.7 km/h 11.3 mph /  18.2 km/h 95 % 0.0 in /  0 mm
10:46 7.6 °F /  -13.6 °C 6.7 °F /  -14.1 °C 1027.7 in /  34797.9 hPa SW 7.9 mph /  12.7 km/h 14.5 mph /  23.3 km/h 94 % 0.0 in /  0 mm
10:52 7.6 °F /  -13.6 °C 6.7 °F /  -14.1 °C 1027.7 in /  34797.9 hPa West 3.2 mph /  5.1 km/h 9.7 mph /  15.6 km/h 94 % 0.0 in /  0 mm
10:58 7.7 °F /  -13.5 °C 6.8 °F /  -14 °C 1027.7 in /  34797.9 hPa SSW 13.0 mph /  20.9 km/h 13.0 mph /  20.9 km/h 94 % 0.0 in /  0 mm
11:04 7.9 °F /  -13.4 °C 6.8 °F /  -14 °C 1027.7 in /  34797.9 hPa SSE 6.4 mph /  10.3 km/h 11.3 mph /  18.2 km/h 93 % 0.0 in /  0 mm
11:10 7.9 °F /  -13.4 °C 6.8 °F /  -14 °C 1027.7 in /  34797.9 hPa SW 7.9 mph /  12.7 km/h 12.9 mph /  20.8 km/h 93 % 0.0 in /  0 mm
11:16 8.1 °F /  -13.3 °C 6.9 °F /  -13.9 °C 1027.7 in /  34797.9 hPa SSW 6.4 mph /  10.3 km/h 14.5 mph /  23.3 km/h 92 % 0.0 in /  0 mm
11:22 8.2 °F /  -13.2 °C 6.8 °F /  -14 °C 1028.0 in /  34808.1 hPa SSW 7.9 mph /  12.7 km/h 16.1 mph /  25.9 km/h 91 % 0.0 in /  0 mm
11:28 8.2 °F /  -13.2 °C 6.8 °F /  -14 °C 1028.0 in /  34808.1 hPa SW 9.7 mph /  15.6 km/h 14.5 mph /  23.3 km/h 91 % 0.0 in /  0 mm
11:40 8.4 °F /  -13.1 °C 6.9 °F /  -13.9 °C 1028.0 in /  34808.1 hPa SW 7.9 mph /  12.7 km/h 14.5 mph /  23.3 km/h 90 % 0.0 in /  0 mm
11:58 8.5 °F /  -13.1 °C 7.0 °F /  -13.9 °C 1027.7 in /  34797.9 hPa SSW 4.7 mph /  7.6 km/h 12.9 mph /  20.8 km/h 90 % 0.0 in /  0 mm
12:10 8.6 °F /  -13 °C 7.1 °F /  -13.8 °C 1027.3 in /  34784.4 hPa SSW 7.9 mph /  12.7 km/h 16.1 mph /  25.9 km/h 90 % 0.0 in /  0 mm
12:16 8.6 °F /  -13 °C 7.1 °F /  -13.8 °C 1027.3 in /  34784.4 hPa SSW 13.0 mph /  20.9 km/h 16.1 mph /  25.9 km/h 90 % 0.0 in /  0 mm
12:22 8.6 °F /  -13 °C 7.1 °F /  -13.8 °C 1027.3 in /  34784.4 hPa South 6.4 mph /  10.3 km/h 17.7 mph /  28.5 km/h 90 % 0.0 in /  0 mm
12:28 8.6 °F /  -13 °C 7.1 °F /  -13.8 °C 1027.3 in /  34784.4 hPa SSW 11.1 mph /  17.9 km/h 17.7 mph /  28.5 km/h 90 % 0.0 in /  0 mm
12:34 8.7 °F /  -12.9 °C 7.2 °F /  -13.8 °C 1027.3 in /  34784.4 hPa SW 11.1 mph /  17.9 km/h 22.5 mph /  36.2 km/h 90 % 0.0 in /  0 mm
12:40 8.7 °F /  -12.9 °C 7.2 °F /  -13.8 °C 1027.3 in /  34784.4 hPa SSW 7.9 mph /  12.7 km/h 17.7 mph /  28.5 km/h 90 % 0.0 in /  0 mm
12:46 8.8 °F /  -12.9 °C 7.2 °F /  -13.8 °C 1027.3 in /  34784.4 hPa SW 14.3 mph /  23 km/h 16.1 mph /  25.9 km/h 90 % 0.0 in /  0 mm
12:52 8.8 °F /  -12.9 °C 7.2 °F /  -13.8 °C 1027.0 in /  34774.2 hPa SSW 7.9 mph /  12.7 km/h 16.1 mph /  25.9 km/h 90 % 0.0 in /  0 mm
12:58 8.8 °F /  -12.9 °C 7.2 °F /  -13.8 °C 1027.0 in /  34774.2 hPa SW 11.1 mph /  17.9 km/h 16.1 mph /  25.9 km/h 90 % 0.0 in /  0 mm
13:04 8.9 °F /  -12.8 °C 7.3 °F /  -13.7 °C 1027.0 in /  34774.2 hPa SSW 16.3 mph /  26.2 km/h 19.3 mph /  31.1 km/h 90 % 0.0 in /  0 mm
13:10 9.1 °F /  -12.7 °C 7.5 °F /  -13.6 °C 1027.0 in /  34774.2 hPa SW 14.3 mph /  23 km/h 20.9 mph /  33.6 km/h 90 % 0.0 in /  0 mm
13:16 9.2 °F /  -12.7 °C 7.5 °F /  -13.6 °C 1027.0 in /  34774.2 hPa SW 17.7 mph /  28.5 km/h 20.9 mph /  33.6 km/h 89 % 0.0 in /  0 mm
13:22 9.3 °F /  -12.6 °C 7.6 °F /  -13.6 °C 1027.0 in /  34774.2 hPa SW 11.1 mph /  17.9 km/h 19.3 mph /  31.1 km/h 89 % 0.0 in /  0 mm
13:28 9.4 °F /  -12.6 °C 7.7 °F /  -13.5 °C 1027.0 in /  34774.2 hPa SW 9.7 mph /  15.6 km/h 19.3 mph /  31.1 km/h 89 % 0.0 in /  0 mm
13:34 9.4 °F /  -12.6 °C 7.5 °F /  -13.6 °C 1027.0 in /  34774.2 hPa SSW 13.0 mph /  20.9 km/h 20.9 mph /  33.6 km/h 88 % 0.0 in /  0 mm
13:40 9.4 °F /  -12.6 °C 7.7 °F /  -13.5 °C 1027.0 in /  34774.2 hPa SSW 13.0 mph /  20.9 km/h 19.3 mph /  31.1 km/h 89 % 0.0 in /  0 mm
13:52 9.5 °F /  -12.5 °C 7.8 °F /  -13.4 °C 1026.6 in /  34760.7 hPa SW 9.7 mph /  15.6 km/h 19.3 mph /  31.1 km/h 89 % 0.0 in /  0 mm
13:58 9.6 °F /  -12.4 °C 7.7 °F /  -13.5 °C 1026.6 in /  34760.7 hPa SW 20.9 mph /  33.6 km/h 25.7 mph /  41.4 km/h 88 % 0.0 in /  0 mm
14:04 9.5 °F /  -12.5 °C 7.8 °F /  -13.4 °C 1026.6 in /  34760.7 hPa SW 14.3 mph /  23 km/h 17.7 mph /  28.5 km/h 89 % 0.0 in /  0 mm
14:10 9.3 °F /  -12.6 °C 7.7 °F /  -13.5 °C 1026.6 in /  34760.7 hPa SW 14.3 mph /  23 km/h 24.1 mph /  38.8 km/h 90 % 0.0 in /  0 mm
14:16 9.2 °F /  -12.7 °C 7.8 °F /  -13.4 °C 1026.6 in /  34760.7 hPa SW 17.7 mph /  28.5 km/h 20.9 mph /  33.6 km/h 91 % 0.0 in /  0 mm
14:22 9.1 °F /  -12.7 °C 7.9 °F /  -13.4 °C 1026.6 in /  34760.7 hPa SSW 13.0 mph /  20.9 km/h 19.3 mph /  31.1 km/h 92 % 0.0 in /  0 mm
14:28 9.2 °F /  -12.7 °C 8.1 °F /  -13.3 °C 1026.6 in /  34760.7 hPa SSW 14.3 mph /  23 km/h 19.3 mph /  31.1 km/h 93 % 0.0 in /  0 mm
14:34 9.0 °F /  -12.8 °C 7.9 °F /  -13.4 °C 1026.6 in /  34760.7 hPa SW 16.3 mph /  26.2 km/h 24.1 mph /  38.8 km/h 93 % 0.0 in /  0 mm
14:40 8.9 °F /  -12.8 °C 8.0 °F /  -13.3 °C 1026.6 in /  34760.7 hPa SW 13.0 mph /  20.9 km/h 17.7 mph /  28.5 km/h 94 % 0.0 in /  0 mm
14:46 8.9 °F /  -12.8 °C 8.1 °F /  -13.3 °C 1026.6 in /  34760.7 hPa SSW 9.7 mph /  15.6 km/h 16.1 mph /  25.9 km/h 95 % 0.0 in /  0 mm
14:52 8.8 °F /  -12.9 °C 8.0 °F /  -13.3 °C 1026.6 in /  34760.7 hPa SSW 7.9 mph /  12.7 km/h 14.5 mph /  23.3 km/h 95 % 0.0 in /  0 mm
15:04 8.7 °F /  -12.9 °C 8.1 °F /  -13.3 °C 1026.6 in /  34760.7 hPa SSW 9.7 mph /  15.6 km/h 16.1 mph /  25.9 km/h 96 % 0.0 in /  0 mm
15:10 8.8 °F /  -12.9 °C 8.2 °F /  -13.2 °C 1026.6 in /  34760.7 hPa SW 13.0 mph /  20.9 km/h 19.3 mph /  31.1 km/h 96 % 0.0 in /  0 mm
15:16 8.8 °F /  -12.9 °C 8.2 °F /  -13.2 °C 1026.6 in /  34760.7 hPa South 13.0 mph /  20.9 km/h 17.7 mph /  28.5 km/h 96 % 0.0 in /  0 mm
15:22 8.8 °F /  -12.9 °C 8.2 °F /  -13.2 °C 1026.6 in /  34760.7 hPa SW 16.3 mph /  26.2 km/h 20.9 mph /  33.6 km/h 96 % 0.0 in /  0 mm
15:28 8.8 °F /  -12.9 °C 8.2 °F /  -13.2 °C 1026.6 in /  34760.7 hPa SW 13.0 mph /  20.9 km/h 16.1 mph /  25.9 km/h 96 % 0.0 in /  0 mm
15:34 8.9 °F /  -12.8 °C 8.3 °F /  -13.2 °C 1026.6 in /  34760.7 hPa SW 7.9 mph /  12.7 km/h 12.9 mph /  20.8 km/h 96 % 0.0 in /  0 mm
15:40 8.8 °F /  -12.9 °C 8.2 °F /  -13.2 °C 1026.6 in /  34760.7 hPa SSW 9.7 mph /  15.6 km/h 17.7 mph /  28.5 km/h 96 % 0.0 in /  0 mm
15:46 8.7 °F /  -12.9 °C 8.1 °F /  -13.3 °C 1026.6 in /  34760.7 hPa South 9.7 mph /  15.6 km/h 12.9 mph /  20.8 km/h 96 % 0.0 in /  0 mm
15:52 8.7 °F /  -12.9 °C 8.1 °F /  -13.3 °C 1026.6 in /  34760.7 hPa SSW 14.3 mph /  23 km/h 17.7 mph /  28.5 km/h 96 % 0.0 in /  0 mm
15:58 8.8 °F /  -12.9 °C 8.3 °F /  -13.2 °C 1026.6 in /  34760.7 hPa SSW 9.7 mph /  15.6 km/h 14.5 mph /  23.3 km/h 97 % 0.0 in /  0 mm
16:04 8.8 °F /  -12.9 °C 8.3 °F /  -13.2 °C 1026.6 in /  34760.7 hPa SW 11.1 mph /  17.9 km/h 14.5 mph /  23.3 km/h 97 % 0.0 in /  0 mm
16:10 8.8 °F /  -12.9 °C 8.3 °F /  -13.2 °C 1026.6 in /  34760.7 hPa SSW 9.7 mph /  15.6 km/h 16.1 mph /  25.9 km/h 97 % 0.0 in /  0 mm
16:16 8.8 °F /  -12.9 °C 8.3 °F /  -13.2 °C 1026.6 in /  34760.7 hPa SSW 9.7 mph /  15.6 km/h 12.9 mph /  20.8 km/h 97 % 0.0 in /  0 mm
16:22 8.8 °F /  -12.9 °C 8.3 °F /  -13.2 °C 1026.6 in /  34760.7 hPa South 13.0 mph /  20.9 km/h 13.0 mph /  20.9 km/h 97 % 0.0 in /  0 mm
16:28 8.8 °F /  -12.9 °C 8.3 °F /  -13.2 °C 1026.6 in /  34760.7 hPa SSW 9.7 mph /  15.6 km/h 17.7 mph /  28.5 km/h 97 % 0.0 in /  0 mm
16:34 8.8 °F /  -12.9 °C 8.3 °F /  -13.2 °C 1026.6 in /  34760.7 hPa SW 9.7 mph /  15.6 km/h 14.5 mph /  23.3 km/h 97 % 0.0 in /  0 mm
16:40 8.8 °F /  -12.9 °C 8.3 °F /  -13.2 °C 1026.6 in /  34760.7 hPa SSW 13.0 mph /  20.9 km/h 14.5 mph /  23.3 km/h 97 % 0.0 in /  0 mm
16:46 8.8 °F /  -12.9 °C 8.3 °F /  -13.2 °C 1026.6 in /  34760.7 hPa SSW 7.9 mph /  12.7 km/h 11.3 mph /  18.2 km/h 97 % 0.0 in /  0 mm
16:52 8.8 °F /  -12.9 °C 8.3 °F /  -13.2 °C 1026.6 in /  34760.7 hPa SW 7.9 mph /  12.7 km/h 9.7 mph /  15.6 km/h 97 % 0.0 in /  0 mm
16:58 8.9 °F /  -12.8 °C 8.4 °F /  -13.1 °C 1026.6 in /  34760.7 hPa SSW 7.9 mph /  12.7 km/h 12.9 mph /  20.8 km/h 97 % 0.0 in /  0 mm
17:04 8.9 °F /  -12.8 °C 8.4 °F /  -13.1 °C 1026.6 in /  34760.7 hPa SSW 7.9 mph /  12.7 km/h 11.3 mph /  18.2 km/h 97 % 0.0 in /  0 mm
17:12 8.9 °F /  -12.8 °C 8.4 °F /  -13.1 °C 1026.6 in /  34760.7 hPa SSW 9.7 mph /  15.6 km/h 9.7 mph /  15.6 km/h 97 % 0.0 in /  0 mm
17:18 8.9 °F /  -12.8 °C 8.4 °F /  -13.1 °C 1026.6 in /  34760.7 hPa SSW 6.4 mph /  10.3 km/h 12.9 mph /  20.8 km/h 97 % 0.0 in /  0 mm
17:24 8.9 °F /  -12.8 °C 8.4 °F /  -13.1 °C 1026.6 in /  34760.7 hPa SSW 6.4 mph /  10.3 km/h 14.5 mph /  23.3 km/h 97 % 0.0 in /  0 mm
17:30 8.9 °F /  -12.8 °C 8.4 °F /  -13.1 °C 1026.6 in /  34760.7 hPa SSW 7.9 mph /  12.7 km/h 11.3 mph /  18.2 km/h 97 % 0.0 in /  0 mm
17:36 9.0 °F /  -12.8 °C 8.5 °F /  -13.1 °C 1026.6 in /  34760.7 hPa South 7.9 mph /  12.7 km/h 11.3 mph /  18.2 km/h 97 % 0.0 in /  0 mm
17:42 9.0 °F /  -12.8 °C 8.5 °F /  -13.1 °C 1026.6 in /  34760.7 hPa SW 7.9 mph /  12.7 km/h 12.9 mph /  20.8 km/h 97 % 0.0 in /  0 mm
17:48 9.0 °F /  -12.8 °C 8.5 °F /  -13.1 °C 1026.6 in /  34760.7 hPa SSW 6.4 mph /  10.3 km/h 9.7 mph /  15.6 km/h 97 % 0.0 in /  0 mm
17:54 9.0 °F /  -12.8 °C 8.5 °F /  -13.1 °C 1026.6 in /  34760.7 hPa South 4.7 mph /  7.6 km/h 9.7 mph /  15.6 km/h 97 % 0.0 in /  0 mm
18:00 9.0 °F /  -12.8 °C 8.5 °F /  -13.1 °C 1026.6 in /  34760.7 hPa South 4.7 mph /  7.6 km/h 9.7 mph /  15.6 km/h 97 % 0.0 in /  0 mm
18:06 9.0 °F /  -12.8 °C 8.5 °F /  -13.1 °C 1026.6 in /  34760.7 hPa SSW 7.9 mph /  12.7 km/h 12.9 mph /  20.8 km/h 97 % 0.0 in /  0 mm
18:12 9.1 °F /  -12.7 °C 8.6 °F /  -13 °C 1026.6 in /  34760.7 hPa SSW 6.4 mph /  10.3 km/h 12.9 mph /  20.8 km/h 97 % 0.0 in /  0 mm
18:18 9.1 °F /  -12.7 °C 8.6 °F /  -13 °C 1026.6 in /  34760.7 hPa South 4.7 mph /  7.6 km/h 9.7 mph /  15.6 km/h 97 % 0.0 in /  0 mm
18:24 9.1 °F /  -12.7 °C 8.8 °F /  -12.9 °C 1027.0 in /  34774.2 hPa SSW 7.9 mph /  12.7 km/h 9.7 mph /  15.6 km/h 98 % 0.0 in /  0 mm
18:30 9.1 °F /  -12.7 °C 8.8 °F /  -12.9 °C 1027.0 in /  34774.2 hPa SSW 6.4 mph /  10.3 km/h 8.0 mph /  12.9 km/h 98 % 0.0 in /  0 mm
18:36 9.1 °F /  -12.7 °C 8.8 °F /  -12.9 °C 1027.0 in /  34774.2 hPa SSW 9.7 mph /  15.6 km/h 9.7 mph /  15.6 km/h 98 % 0.0 in /  0 mm
18:42 9.1 °F /  -12.7 °C 8.8 °F /  -12.9 °C 1027.0 in /  34774.2 hPa SSW 4.7 mph /  7.6 km/h 8.0 mph /  12.9 km/h 98 % 0.0 in /  0 mm
18:48 9.2 °F /  -12.7 °C 8.9 °F /  -12.8 °C 1027.0 in /  34774.2 hPa SSW 4.7 mph /  7.6 km/h 8.0 mph /  12.9 km/h 98 % 0.3 in /  7.62 mm
18:54 9.2 °F /  -12.7 °C 8.9 °F /  -12.8 °C 1027.0 in /  34774.2 hPa SSW 4.7 mph /  7.6 km/h 6.4 mph /  10.3 km/h 98 % 0.3 in /  7.62 mm
19:00 9.2 °F /  -12.7 °C 8.9 °F /  -12.8 °C 1027.0 in /  34774.2 hPa South 3.2 mph /  5.1 km/h 6.4 mph /  10.3 km/h 98 % 0.3 in /  7.62 mm
19:06 9.2 °F /  -12.7 °C 8.9 °F /  -12.8 °C 1027.0 in /  34774.2 hPa SSW 3.2 mph /  5.1 km/h 4.8 mph /  7.7 km/h 98 % 0.3 in /  7.62 mm
19:13 9.2 °F /  -12.7 °C 8.9 °F /  -12.8 °C 1027.0 in /  34774.2 hPa SSW 3.2 mph /  5.1 km/h 6.4 mph /  10.3 km/h 98 % 0.3 in /  7.62 mm
19:18 9.3 °F /  -12.6 °C 9.0 °F /  -12.8 °C 1027.0 in /  34774.2 hPa SSW 3.2 mph /  5.1 km/h 6.4 mph /  10.3 km/h 98 % 0.3 in /  7.62 mm
19:30 9.4 °F /  -12.6 °C 9.1 °F /  -12.7 °C 1027.0 in /  34774.2 hPa SSW 7.9 mph /  12.7 km/h 8.0 mph /  12.9 km/h 98 % 0.3 in /  7.62 mm
19:37 9.5 °F /  -12.5 °C 9.2 °F /  -12.7 °C 1027.3 in /  34784.4 hPa SW 7.9 mph /  12.7 km/h 8.0 mph /  12.9 km/h 98 % 0.3 in /  7.62 mm
19:42 9.7 °F /  -12.4 °C 9.4 °F /  -12.6 °C 1027.0 in /  34774.2 hPa SW 6.4 mph /  10.3 km/h 12.9 mph /  20.8 km/h 98 % 0.3 in /  7.62 mm
19:55 9.9 °F /  -12.3 °C 9.6 °F /  -12.4 °C 1027.3 in /  34784.4 hPa SSW 6.4 mph /  10.3 km/h 9.7 mph /  15.6 km/h 98 % 0.0 in /  0 mm
20:01 9.9 °F /  -12.3 °C 9.6 °F /  -12.4 °C 1027.3 in /  34784.4 hPa SW 7.9 mph /  12.7 km/h 11.3 mph /  18.2 km/h 98 % 0.0 in /  0 mm
20:07 9.9 °F /  -12.3 °C 9.6 °F /  -12.4 °C 1027.3 in /  34784.4 hPa SW 9.7 mph /  15.6 km/h 11.3 mph /  18.2 km/h 98 % 0.0 in /  0 mm
20:19 10.0 °F /  -12.2 °C 9.7 °F /  -12.4 °C 1027.3 in /  34784.4 hPa SSW 4.7 mph /  7.6 km/h 12.9 mph /  20.8 km/h 98 % 0.0 in /  0 mm
20:25 10.0 °F /  -12.2 °C 9.7 °F /  -12.4 °C 1027.3 in /  34784.4 hPa SW 6.4 mph /  10.3 km/h 12.9 mph /  20.8 km/h 98 % 0.0 in /  0 mm
20:31 10.0 °F /  -12.2 °C 9.7 °F /  -12.4 °C 1027.3 in /  34784.4 hPa SSW 6.4 mph /  10.3 km/h 9.7 mph /  15.6 km/h 98 % 0.0 in /  0 mm
20:37 9.9 °F /  -12.3 °C 9.6 °F /  -12.4 °C 1027.3 in /  34784.4 hPa SW 7.9 mph /  12.7 km/h 9.7 mph /  15.6 km/h 98 % 0.0 in /  0 mm
20:43 10.0 °F /  -12.2 °C 9.7 °F /  -12.4 °C 1027.3 in /  34784.4 hPa SW 7.9 mph /  12.7 km/h 9.7 mph /  15.6 km/h 98 % 0.0 in /  0 mm
20:49 10.0 °F /  -12.2 °C 9.7 °F /  -12.4 °C 1027.3 in /  34784.4 hPa SSW 4.7 mph /  7.6 km/h 9.7 mph /  15.6 km/h 98 % 0.0 in /  0 mm
20:55 10.0 °F /  -12.2 °C 9.7 °F /  -12.4 °C 1027.3 in /  34784.4 hPa SW 6.4 mph /  10.3 km/h 9.7 mph /  15.6 km/h 98 % 0.0 in /  0 mm
21:01 10.0 °F /  -12.2 °C 9.7 °F /  -12.4 °C 1027.3 in /  34784.4 hPa SW 14.3 mph /  23 km/h 14.5 mph /  23.3 km/h 98 % 0.0 in /  0 mm
21:07 10.0 °F /  -12.2 °C 9.7 °F /  -12.4 °C 1027.3 in /  34784.4 hPa SW 11.1 mph /  17.9 km/h 19.3 mph /  31.1 km/h 98 % 0.0 in /  0 mm
21:13 10.0 °F /  -12.2 °C 9.7 °F /  -12.4 °C 1027.3 in /  34784.4 hPa SW 7.9 mph /  12.7 km/h 12.9 mph /  20.8 km/h 98 % 0.0 in /  0 mm
21:19 9.9 °F /  -12.3 °C 9.4 °F /  -12.6 °C 1027.3 in /  34784.4 hPa SW 13.0 mph /  20.9 km/h 17.7 mph /  28.5 km/h 97 % 0.0 in /  0 mm
21:25 9.9 °F /  -12.3 °C 9.4 °F /  -12.6 °C 1027.0 in /  34774.2 hPa SW 9.7 mph /  15.6 km/h 19.3 mph /  31.1 km/h 97 % 0.0 in /  0 mm
21:31 9.9 °F /  -12.3 °C 9.4 °F /  -12.6 °C 1027.0 in /  34774.2 hPa SW 11.1 mph /  17.9 km/h 14.5 mph /  23.3 km/h 97 % 0.0 in /  0 mm
21:37 9.9 °F /  -12.3 °C 9.4 °F /  -12.6 °C 1027.3 in /  34784.4 hPa SW 13.0 mph /  20.9 km/h 17.7 mph /  28.5 km/h 97 % 0.0 in /  0 mm
21:43 9.9 °F /  -12.3 °C 9.4 °F /  -12.6 °C 1027.3 in /  34784.4 hPa SW 7.9 mph /  12.7 km/h 12.9 mph /  20.8 km/h 97 % 0.0 in /  0 mm
21:55 10.0 °F /  -12.2 °C 9.5 °F /  -12.5 °C 1027.3 in /  34784.4 hPa SSW 17.7 mph /  28.5 km/h 19.3 mph /  31.1 km/h 97 % 0.0 in /  0 mm
22:01 10.0 °F /  -12.2 °C 9.5 °F /  -12.5 °C 1027.3 in /  34784.4 hPa SW 9.7 mph /  15.6 km/h 16.1 mph /  25.9 km/h 97 % 0.0 in /  0 mm
22:07 10.0 °F /  -12.2 °C 9.5 °F /  -12.5 °C 1027.3 in /  34784.4 hPa SSW 11.1 mph /  17.9 km/h 14.5 mph /  23.3 km/h 97 % 0.0 in /  0 mm
22:13 10.0 °F /  -12.2 °C 9.5 °F /  -12.5 °C 1027.3 in /  34784.4 hPa SSW 19.5 mph /  31.4 km/h 20.9 mph /  33.6 km/h 97 % 0.0 in /  0 mm
22:19 10.1 °F /  -12.2 °C 9.5 °F /  -12.5 °C 1027.3 in /  34784.4 hPa SW 9.7 mph /  15.6 km/h 19.3 mph /  31.1 km/h 96 % 0.0 in /  0 mm
22:31 10.1 °F /  -12.2 °C 9.5 °F /  -12.5 °C 1027.3 in /  34784.4 hPa SW 4.7 mph /  7.6 km/h 14.5 mph /  23.3 km/h 96 % 0.0 in /  0 mm
22:49 10.1 °F /  -12.2 °C 9.5 °F /  -12.5 °C 1027.3 in /  34784.4 hPa SSW 6.4 mph /  10.3 km/h 14.5 mph /  23.3 km/h 96 % 0.0 in /  0 mm
23:01 9.9 °F /  -12.3 °C 9.3 °F /  -12.6 °C 1027.3 in /  34784.4 hPa SSW 9.7 mph /  15.6 km/h 12.9 mph /  20.8 km/h 96 % 0.0 in /  0 mm
23:13 9.8 °F /  -12.3 °C 9.2 °F /  -12.7 °C 1027.3 in /  34784.4 hPa SW 13.0 mph /  20.9 km/h 17.7 mph /  28.5 km/h 96 % 0.0 in /  0 mm
23:19 9.8 °F /  -12.3 °C 9.2 °F /  -12.7 °C 1027.3 in /  34784.4 hPa SW 16.3 mph /  26.2 km/h 17.7 mph /  28.5 km/h 96 % 0.0 in /  0 mm
23:31 9.8 °F /  -12.3 °C 9.0 °F /  -12.8 °C 1027.3 in /  34784.4 hPa SW 16.3 mph /  26.2 km/h 19.3 mph /  31.1 km/h 95 % 0.0 in /  0 mm
23:37 9.8 °F /  -12.3 °C 9.0 °F /  -12.8 °C 1027.3 in /  34784.4 hPa SSW 14.3 mph /  23 km/h 19.3 mph /  31.1 km/h 95 % 0.0 in /  0 mm
23:43 9.8 °F /  -12.3 °C 9.0 °F /  -12.8 °C 1027.0 in /  34774.2 hPa SW 16.3 mph /  26.2 km/h 20.9 mph /  33.6 km/h 95 % 0.0 in /  0 mm
23:49 9.7 °F /  -12.4 °C 8.9 °F /  -12.8 °C 1027.3 in /  34784.4 hPa SW 16.3 mph /  26.2 km/h 17.7 mph /  28.5 km/h 95 % 0.0 in /  0 mm
23:55 9.7 °F /  -12.4 °C 8.9 °F /  -12.8 °C 1027.0 in /  34774.2 hPa SSW 11.1 mph /  17.9 km/h 24.1 mph /  38.8 km/h 95 % 0.0 in /  0 mm
Meteo18
Compliments of Weather Underground - 4 mb

Script developed by  Jim McMurry - jmcmurry@mwt.net Adapted for the template by  Wim van der Kuil - Leuven-Template.eu

You find our weather info also at:

European Weather Network

Weather Underground

Equipment we use:

Weather-station
Davis Vue

Weather-program
Meteobridge

Weather-server
Raspberry PI 2 B+

Provider
1 and 1

Davis Vue

Meteobridge

Raspberry PI 2 B+

1 and 1